createdAt,value
2023-05-09T00:02:07.952Z,1.70
2023-05-09T00:04:37.396Z,3.10
2023-05-09T00:07:06.139Z,2.00
2023-05-09T00:09:37.224Z,1.95
2023-05-09T00:12:06.448Z,2.95
2023-05-09T00:14:33.550Z,2.33
2023-05-09T00:17:02.498Z,4.65
2023-05-09T00:19:36.463Z,2.53
2023-05-09T00:22:09.188Z,1.65
2023-05-09T00:24:35.746Z,1.70
2023-05-09T00:27:07.617Z,1.70
2023-05-09T00:29:36.971Z,1.70
2023-05-09T00:32:03.507Z,1.30
2023-05-09T00:34:35.167Z,2.10
2023-05-09T00:37:01.685Z,1.70
2023-05-09T00:39:30.802Z,1.42
2023-05-09T00:41:57.393Z,2.60
2023-05-09T00:44:26.338Z,1.77
2023-05-09T00:46:52.855Z,1.98
2023-05-09T00:49:21.933Z,2.30
2023-05-09T00:51:48.899Z,1.92
2023-05-09T00:54:17.826Z,1.65
2023-05-09T00:56:49.190Z,1.83
2023-05-09T00:59:18.890Z,1.67
2023-05-09T01:01:46.050Z,3.70
2023-05-09T01:04:15.368Z,3.17
2023-05-09T01:07:00.921Z,1.55
2023-05-09T01:09:30.280Z,2.00
2023-05-09T01:12:15.544Z,2.45
2023-05-09T01:14:56.756Z,2.13
2023-05-09T01:17:44.323Z,1.48
2023-05-09T01:22:44.637Z,1.23
2023-05-09T01:25:11.085Z,2.10
2023-05-09T01:27:44.507Z,2.88
2023-05-09T01:30:12.263Z,2.03
2023-05-09T01:32:42.592Z,2.00
2023-05-09T01:35:11.681Z,2.03
2023-05-09T01:37:39.968Z,1.70
2023-05-09T01:40:21.268Z,2.25
2023-05-09T01:42:49.827Z,1.65
2023-05-09T01:45:24.747Z,2.45
2023-05-09T01:47:51.360Z,2.35
2023-05-09T01:50:24.199Z,1.77
2023-05-09T01:52:55.009Z,1.88
2023-05-09T01:55:27.009Z,2.55
2023-05-09T01:57:58.930Z,1.92
2023-05-09T02:00:25.569Z,1.95
2023-05-09T02:02:57.766Z,2.08
2023-05-09T02:05:26.130Z,1.60
2023-05-09T02:07:57.256Z,1.67
2023-05-09T02:10:26.869Z,1.33
2023-05-09T02:12:53.827Z,1.60
2023-05-09T02:15:20.991Z,1.85
2023-05-09T02:17:50.686Z,1.70
2023-05-09T02:20:19.765Z,1.73
2023-05-09T02:22:49.715Z,1.63
2023-05-09T02:25:17.185Z,1.63
2023-05-09T02:27:48.849Z,1.67
2023-05-09T02:30:21.107Z,1.80
2023-05-09T02:32:51.839Z,1.58
2023-05-09T02:35:21.914Z,2.63
2023-05-09T02:37:48.818Z,1.45
2023-05-09T02:40:19.100Z,1.67
2023-05-09T02:42:48.116Z,3.67
2023-05-09T02:45:14.811Z,1.85
2023-05-09T02:47:43.883Z,2.40
2023-05-09T02:50:10.874Z,1.75
2023-05-09T02:52:40.937Z,2.28
2023-05-09T02:55:10.022Z,1.35
2023-05-09T02:57:39.327Z,1.70
2023-05-09T03:00:10.447Z,2.10
2023-05-09T03:02:37.860Z,2.25
2023-05-09T03:05:07.557Z,1.83
2023-05-09T03:07:37.257Z,1.60
2023-05-09T03:10:04.263Z,1.40
2023-05-09T03:12:33.941Z,1.92
2023-05-09T03:15:01.224Z,2.38
2023-05-09T03:17:28.432Z,1.38
2023-05-09T03:19:55.324Z,1.52
2023-05-09T03:22:26.607Z,1.85
2023-05-09T03:25:00.724Z,1.30
2023-05-09T03:27:29.365Z,2.67
2023-05-09T03:29:58.864Z,1.27
2023-05-09T03:32:26.653Z,0.98
2023-05-09T03:34:53.246Z,1.23
2023-05-09T03:37:22.197Z,2.22
2023-05-09T03:39:49.026Z,2.40
2023-05-09T03:42:16.178Z,2.70
2023-05-09T03:44:50.539Z,2.10
2023-05-09T03:47:20.013Z,4.45
2023-05-09T03:49:46.747Z,2.03
2023-05-09T03:52:16.448Z,2.85
2023-05-09T03:54:48.423Z,1.83
2023-05-09T03:57:16.037Z,2.40
2023-05-09T03:59:49.491Z,1.77
2023-05-09T04:02:16.260Z,2.50
2023-05-09T04:04:44.804Z,4.60
2023-05-09T04:07:11.331Z,2.10
2023-05-09T04:09:37.847Z,1.70
2023-05-09T04:12:04.402Z,3.83
2023-05-09T04:14:34.112Z,2.17
2023-05-09T04:17:03.370Z,2.15
2023-05-09T04:19:29.957Z,2.60
2023-05-09T04:21:58.481Z,1.70
2023-05-09T04:24:27.471Z,1.92
2023-05-09T04:26:56.753Z,2.78
2023-05-09T04:29:31.420Z,1.95
2023-05-09T04:32:00.104Z,1.63
2023-05-09T04:34:27.718Z,1.75
2023-05-09T04:36:55.599Z,2.95
2023-05-09T04:39:24.601Z,4.00
2023-05-09T04:42:02.690Z,1.95
2023-05-09T04:44:33.148Z,2.40
2023-05-09T04:47:00.191Z,2.53
2023-05-09T04:49:27.545Z,3.40
2023-05-09T04:51:53.930Z,2.22
2023-05-09T04:54:26.042Z,2.80
2023-05-09T04:56:57.938Z,1.75
2023-05-09T04:59:36.621Z,3.22
2023-05-09T05:02:06.721Z,3.25
2023-05-09T05:04:33.739Z,3.30
2023-05-09T05:07:05.464Z,3.78
2023-05-09T05:09:34.810Z,3.83
2023-05-09T05:12:09.175Z,3.47
2023-05-09T05:14:36.992Z,2.33
2023-05-09T05:17:05.877Z,3.83
2023-05-09T05:19:41.466Z,4.00
2023-05-09T05:24:39.517Z,2.00
2023-05-09T05:27:06.079Z,2.08
2023-05-09T05:29:34.121Z,3.75
2023-05-09T05:32:03.880Z,3.17
2023-05-09T05:34:30.622Z,2.35
2023-05-09T05:36:59.808Z,3.92
2023-05-09T05:39:26.350Z,2.92
2023-05-09T05:41:53.406Z,3.83
2023-05-09T05:44:24.885Z,3.40
2023-05-09T05:46:54.121Z,2.13
2023-05-09T05:49:21.014Z,7.05
2023-05-09T05:51:47.509Z,4.70
2023-05-09T05:54:16.779Z,3.70
2023-05-09T05:56:43.331Z,2.80
2023-05-09T05:59:13.585Z,3.45
2023-05-09T06:01:40.741Z,3.08
2023-05-09T06:04:07.551Z,3.75
2023-05-09T06:06:36.707Z,2.40
2023-05-09T06:09:05.760Z,3.42
2023-05-09T06:11:35.466Z,4.88
2023-05-09T06:14:04.595Z,6.97
2023-05-09T06:16:31.293Z,3.55
2023-05-09T06:18:57.826Z,3.25
2023-05-09T06:21:26.731Z,2.78
2023-05-09T06:24:05.785Z,2.45
2023-05-09T06:26:39.070Z,2.53
2023-05-09T06:29:14.236Z,4.57
2023-05-09T06:31:40.908Z,2.55
2023-05-09T06:34:07.649Z,3.10
2023-05-09T06:36:36.472Z,5.32
2023-05-09T06:39:03.018Z,2.17
2023-05-09T06:41:31.600Z,2.53
2023-05-09T06:44:02.447Z,2.85
2023-05-09T06:46:33.793Z,3.15
2023-05-09T06:49:03.324Z,2.30
2023-05-09T06:51:29.797Z,2.13
2023-05-09T06:53:58.384Z,2.03
2023-05-09T06:56:30.295Z,2.03
2023-05-09T06:58:56.858Z,2.85
2023-05-09T07:01:23.687Z,2.50
2023-05-09T07:03:50.280Z,2.28
2023-05-09T07:06:19.237Z,3.17
2023-05-09T07:08:48.318Z,3.83
2023-05-09T07:11:14.818Z,3.25
2023-05-09T07:13:41.789Z,3.45
2023-05-09T07:16:08.282Z,2.67
2023-05-09T07:18:34.858Z,2.83
2023-05-09T07:21:03.768Z,3.13
2023-05-09T07:23:32.827Z,2.65
2023-05-09T07:26:01.863Z,2.65
2023-05-09T07:28:31.373Z,3.70
2023-05-09T07:31:00.300Z,3.20
2023-05-09T07:33:29.296Z,3.35
2023-05-09T07:35:55.802Z,3.58
2023-05-09T07:38:25.461Z,4.40
2023-05-09T07:40:53.227Z,3.45
2023-05-09T07:43:24.674Z,3.10
2023-05-09T07:45:53.539Z,3.42
2023-05-09T07:48:20.372Z,3.72
2023-05-09T07:50:49.166Z,3.00
2023-05-09T07:53:17.672Z,3.13
2023-05-09T07:55:50.165Z,3.17
2023-05-09T07:58:21.402Z,3.10
2023-05-09T08:00:47.920Z,2.80
2023-05-09T08:03:14.598Z,2.85
2023-05-09T08:05:41.254Z,4.63
2023-05-09T08:08:07.911Z,5.05
2023-05-09T08:10:36.855Z,3.78
2023-05-09T08:13:05.892Z,3.53
2023-05-09T08:15:37.087Z,3.58
2023-05-09T08:18:06.632Z,4.28
2023-05-09T08:20:34.538Z,3.53
2023-05-09T08:23:01.047Z,3.13
2023-05-09T08:25:29.875Z,2.80
2023-05-09T08:27:58.483Z,3.70
2023-05-09T08:30:29.304Z,3.38
2023-05-09T08:32:56.419Z,4.88
2023-05-09T08:35:22.949Z,3.15
2023-05-09T08:37:49.484Z,4.50
2023-05-09T08:40:18.448Z,4.63
2023-05-09T08:42:46.100Z,3.60
2023-05-09T08:45:16.475Z,2.97
2023-05-09T08:47:43.015Z,3.72
2023-05-09T08:50:15.202Z,3.30
2023-05-09T08:52:44.460Z,3.67
2023-05-09T08:55:11.180Z,3.45
2023-05-09T08:57:37.809Z,3.33
2023-05-09T09:00:12.031Z,2.53
2023-05-09T09:02:44.746Z,2.92
2023-05-09T09:05:23.922Z,2.70
2023-05-09T09:08:00.684Z,1.95
2023-05-09T09:10:30.726Z,2.47
2023-05-09T09:13:04.834Z,2.90
2023-05-09T09:15:34.761Z,2.85
2023-05-09T09:18:09.099Z,4.45
2023-05-09T09:20:41.314Z,3.63
2023-05-09T09:23:10.438Z,3.90
2023-05-09T09:25:37.155Z,2.80
2023-05-09T09:28:06.300Z,2.33
2023-05-09T09:30:32.840Z,3.65
2023-05-09T09:33:03.854Z,4.15
2023-05-09T09:35:40.436Z,3.53
2023-05-09T09:38:09.034Z,5.13
2023-05-09T09:40:40.636Z,6.13
2023-05-09T09:43:07.552Z,3.65
2023-05-09T09:45:41.689Z,2.58
2023-05-09T09:48:10.858Z,2.78
2023-05-09T09:50:39.724Z,3.67
2023-05-09T09:53:10.842Z,7.50
2023-05-09T09:55:39.767Z,3.45
2023-05-09T09:58:18.565Z,4.68
2023-05-09T10:01:06.044Z,6.43
2023-05-09T10:03:35.854Z,3.53
2023-05-09T10:06:04.794Z,2.90
2023-05-09T10:08:31.289Z,3.38
2023-05-09T10:11:02.170Z,2.95
2023-05-09T10:13:31.637Z,3.38
2023-05-09T10:15:59.317Z,4.05
2023-05-09T10:18:29.060Z,3.30
2023-05-09T10:20:56.432Z,4.22
2023-05-09T10:23:25.360Z,5.78
2023-05-09T10:26:00.471Z,5.50
2023-05-09T10:28:31.975Z,2.60
2023-05-09T10:31:08.776Z,4.07
2023-05-09T10:33:42.620Z,4.07
2023-05-09T10:36:15.374Z,2.97
2023-05-09T10:38:41.937Z,2.55
2023-05-09T10:41:13.667Z,2.50
2023-05-09T10:43:40.399Z,2.72
2023-05-09T10:46:09.437Z,3.15
2023-05-09T10:48:38.830Z,4.60
2023-05-09T10:51:05.697Z,2.90
2023-05-09T10:53:42.531Z,2.88
2023-05-09T10:56:24.292Z,3.17
2023-05-09T10:58:50.779Z,3.10
2023-05-09T11:01:28.518Z,2.80
2023-05-09T11:03:58.419Z,2.55
2023-05-09T11:06:43.976Z,3.22
2023-05-09T11:09:29.569Z,3.50
2023-05-09T11:12:07.544Z,2.35
2023-05-09T11:14:44.752Z,4.20
2023-05-09T11:17:12.885Z,2.90
2023-05-09T11:19:47.976Z,3.13
2023-05-09T11:22:18.443Z,4.30
2023-05-09T11:24:49.018Z,3.75
2023-05-09T11:27:18.461Z,2.83
2023-05-09T11:30:00.086Z,3.22
2023-05-09T11:32:33.182Z,3.03
2023-05-09T11:35:15.621Z,3.65
2023-05-09T11:37:46.274Z,3.45
2023-05-09T11:40:16.000Z,2.80
2023-05-09T11:42:46.471Z,3.75
2023-05-09T11:45:15.810Z,2.60
2023-05-09T11:47:45.114Z,3.90
2023-05-09T11:50:17.744Z,4.13
2023-05-09T11:52:47.258Z,2.70
2023-05-09T11:55:19.805Z,2.75
2023-05-09T11:57:49.897Z,2.50
2023-05-09T12:00:20.697Z,3.65
2023-05-09T12:02:51.054Z,3.97
2023-05-09T12:05:22.883Z,3.35
2023-05-09T12:07:50.151Z,3.40
2023-05-09T12:10:24.562Z,2.88
2023-05-09T12:12:55.648Z,2.75
2023-05-09T12:15:22.505Z,5.32
2023-05-09T12:18:00.846Z,3.75
2023-05-09T12:20:29.687Z,3.00
2023-05-09T12:22:58.533Z,3.85
2023-05-09T12:25:24.975Z,5.05
2023-05-09T12:27:54.694Z,2.63
2023-05-09T12:30:26.264Z,2.90
2023-05-09T12:32:55.375Z,3.83
2023-05-09T12:35:26.537Z,3.08
2023-05-09T12:37:57.270Z,2.90
2023-05-09T12:40:26.315Z,4.20
2023-05-09T12:43:00.742Z,2.67
2023-05-09T12:45:31.996Z,3.53
2023-05-09T12:48:02.516Z,2.72
2023-05-09T12:50:31.865Z,3.47
2023-05-09T12:53:03.408Z,2.60
2023-05-09T12:55:31.172Z,4.18
2023-05-09T12:58:02.212Z,3.05
2023-05-09T13:00:28.843Z,4.10
2023-05-09T13:02:57.722Z,4.10
2023-05-09T13:05:24.437Z,6.90
2023-05-09T13:07:54.847Z,4.47
2023-05-09T13:10:28.555Z,4.40
2023-05-09T13:12:59.875Z,3.30
2023-05-09T13:15:29.689Z,3.10
2023-05-09T13:18:00.929Z,3.47
2023-05-09T13:20:32.167Z,2.70
2023-05-09T13:22:59.138Z,4.93
2023-05-09T13:25:27.900Z,2.92
2023-05-09T13:27:59.041Z,3.83
2023-05-09T13:30:30.987Z,3.63
2023-05-09T13:33:00.350Z,3.28
2023-05-09T13:35:37.889Z,3.72
2023-05-09T13:38:06.913Z,3.05
2023-05-09T13:40:38.594Z,2.92
2023-05-09T13:43:09.715Z,2.22
2023-05-09T13:45:36.177Z,3.15
2023-05-09T13:48:02.989Z,3.10
2023-05-09T13:50:32.124Z,4.30
2023-05-09T13:53:01.126Z,3.67
2023-05-09T13:55:27.997Z,3.30
2023-05-09T13:57:54.911Z,3.50
2023-05-09T14:00:24.643Z,4.00
2023-05-09T14:05:22.814Z,2.78
2023-05-09T14:07:52.137Z,3.25
2023-05-09T14:10:24.139Z,3.03
2023-05-09T14:12:50.593Z,3.13
2023-05-09T14:15:19.403Z,3.72
2023-05-09T14:17:49.059Z,3.85
2023-05-09T14:20:18.712Z,3.63
2023-05-09T14:22:50.200Z,3.42
2023-05-09T14:25:18.923Z,3.65
2023-05-09T14:27:47.968Z,4.05
2023-05-09T14:30:15.583Z,3.72
2023-05-09T14:32:42.371Z,4.30
2023-05-09T14:35:09.454Z,3.63
2023-05-09T14:37:41.406Z,3.83
2023-05-09T14:40:11.446Z,4.75
2023-05-09T14:42:44.198Z,4.93
2023-05-09T14:45:15.354Z,4.70
2023-05-09T14:47:44.081Z,5.00
2023-05-09T14:50:15.894Z,4.38
2023-05-09T14:52:43.795Z,4.20
2023-05-09T14:55:10.407Z,4.15
2023-05-09T14:57:36.908Z,3.90
2023-05-09T15:00:13.071Z,6.60
2023-05-09T15:02:46.617Z,6.22
2023-05-09T15:05:13.810Z,5.82
2023-05-09T15:07:42.388Z,5.53
2023-05-09T15:10:12.055Z,3.97
2023-05-09T15:12:38.481Z,4.75
2023-05-09T15:15:15.861Z,5.28
2023-05-09T15:17:45.121Z,5.40
2023-05-09T15:20:12.286Z,5.43
2023-05-09T15:22:40.892Z,5.53
2023-05-09T15:25:12.255Z,6.07
2023-05-09T15:27:39.502Z,6.40
2023-05-09T15:30:09.103Z,6.05
2023-05-09T15:32:39.847Z,4.72
2023-05-09T15:35:06.984Z,5.93
2023-05-09T15:37:35.658Z,5.55
2023-05-09T15:40:05.168Z,5.47
2023-05-09T15:42:34.224Z,9.30
2023-05-09T15:45:03.868Z,7.35
2023-05-09T15:47:32.646Z,6.38
2023-05-09T15:50:01.787Z,6.20
2023-05-09T15:52:30.452Z,5.70
2023-05-09T15:54:56.949Z,5.93
2023-05-09T15:57:26.061Z,5.13
2023-05-09T15:59:55.211Z,5.55
2023-05-09T16:02:24.665Z,3.75
2023-05-09T16:04:53.842Z,6.07
2023-05-09T16:07:20.747Z,6.25
2023-05-09T16:09:49.689Z,4.18
2023-05-09T16:12:16.431Z,4.90
2023-05-09T16:14:43.061Z,5.55
2023-05-09T16:17:09.540Z,6.47
2023-05-09T16:19:36.426Z,5.65
2023-05-09T16:22:05.014Z,6.57
2023-05-09T16:24:31.907Z,5.43
2023-05-09T16:26:58.355Z,4.90
2023-05-09T16:29:28.486Z,4.95
2023-05-09T16:31:57.548Z,5.28
2023-05-09T16:34:24.144Z,5.30
2023-05-09T16:36:53.480Z,6.75
2023-05-09T16:39:20.033Z,5.13
2023-05-09T16:41:51.333Z,6.13
2023-05-09T16:44:17.812Z,5.57
2023-05-09T16:46:47.185Z,5.85
2023-05-09T16:49:17.940Z,7.45
2023-05-09T16:51:47.329Z,5.28
2023-05-09T16:54:16.361Z,5.13
2023-05-09T16:56:45.303Z,4.07
2023-05-09T16:59:11.760Z,3.60
2023-05-09T17:01:38.482Z,7.15
2023-05-09T17:04:09.713Z,5.75
2023-05-09T17:06:43.256Z,5.88
2023-05-09T17:09:13.049Z,3.83
2023-05-09T17:11:44.633Z,4.03
2023-05-09T17:14:11.377Z,3.85
2023-05-09T17:16:38.219Z,3.38
2023-05-09T17:19:04.851Z,2.58
2023-05-09T17:21:34.163Z,4.07
2023-05-09T17:24:02.039Z,3.25
2023-05-09T17:26:30.600Z,2.63
2023-05-09T17:29:03.616Z,2.22
2023-05-09T17:31:32.563Z,2.65
2023-05-09T17:34:01.574Z,2.35
2023-05-09T17:36:28.141Z,2.13
2023-05-09T17:38:59.429Z,2.58
2023-05-09T17:41:28.480Z,2.90
2023-05-09T17:43:57.553Z,2.47
2023-05-09T17:46:28.642Z,3.30
2023-05-09T17:48:57.684Z,2.72
2023-05-09T17:51:24.260Z,2.70
2023-05-09T17:53:52.711Z,2.10
2023-05-09T17:56:22.452Z,2.05
2023-05-09T17:58:52.926Z,2.03
2023-05-09T18:01:22.152Z,4.43
2023-05-09T18:03:51.459Z,4.57
2023-05-09T18:06:20.289Z,2.10
2023-05-09T18:08:49.108Z,2.33
2023-05-09T18:11:17.787Z,3.38
2023-05-09T18:13:47.228Z,2.45
2023-05-09T18:16:13.871Z,2.58
2023-05-09T18:18:40.498Z,2.53
2023-05-09T18:21:08.053Z,2.47
2023-05-09T18:23:34.598Z,3.10
2023-05-09T18:26:03.581Z,2.90
2023-05-09T18:28:39.143Z,2.30
2023-05-09T18:31:12.268Z,3.13
2023-05-09T18:33:39.464Z,3.72
2023-05-09T18:36:09.426Z,3.83
2023-05-09T18:38:38.270Z,3.55
2023-05-09T18:41:08.592Z,3.53
2023-05-09T18:43:35.821Z,2.72
2023-05-09T18:46:05.309Z,3.47
2023-05-09T18:48:36.220Z,2.85
2023-05-09T18:51:02.810Z,2.65
2023-05-09T18:53:29.385Z,4.05
2023-05-09T18:56:00.406Z,2.70
2023-05-09T18:58:29.137Z,2.22
2023-05-09T19:00:55.887Z,2.90
2023-05-09T19:03:25.069Z,2.50
2023-05-09T19:05:51.546Z,2.60
2023-05-09T19:08:18.149Z,3.47
2023-05-09T19:10:44.857Z,2.83
2023-05-09T19:13:16.044Z,2.58
2023-05-09T19:15:43.118Z,2.75
2023-05-09T19:18:09.595Z,4.38
2023-05-09T19:23:20.391Z,2.55
2023-05-09T19:25:47.433Z,3.50
2023-05-09T19:28:18.888Z,1.67
2023-05-09T19:30:45.863Z,2.03
2023-05-09T19:33:12.590Z,0.77
2023-05-09T19:35:41.548Z,2.03
2023-05-09T19:38:13.650Z,0.75
2023-05-09T19:40:42.526Z,0.63
2023-05-09T19:43:09.314Z,0.47
2023-05-09T19:45:38.306Z,1.25
2023-05-09T19:48:07.669Z,0.98
2023-05-09T19:50:36.827Z,0.82
2023-05-09T19:53:03.493Z,0.80
2023-05-09T19:55:32.427Z,0.70
2023-05-09T19:57:58.976Z,0.75
2023-05-09T20:00:25.770Z,0.65
2023-05-09T20:02:52.520Z,0.65
2023-05-09T20:05:19.079Z,0.63
2023-05-09T20:07:47.960Z,0.30
2023-05-09T20:10:15.671Z,0.50
2023-05-09T20:12:43.488Z,0.93
2023-05-09T20:15:10.253Z,0.80
2023-05-09T20:17:36.859Z,0.80
2023-05-09T20:20:04.192Z,0.90
2023-05-09T20:22:30.642Z,0.43
2023-05-09T20:24:57.200Z,1.35
2023-05-09T20:27:23.792Z,0.30
2023-05-09T20:29:53.169Z,0.38
2023-05-09T20:32:19.863Z,0.40
2023-05-09T20:34:46.513Z,0.57
2023-05-09T20:37:17.177Z,1.70
2023-05-09T20:39:46.221Z,0.80
2023-05-09T20:42:13.243Z,0.35
2023-05-09T20:44:42.098Z,0.88
2023-05-09T20:47:11.174Z,0.80
2023-05-09T20:49:42.166Z,0.90
2023-05-09T20:52:08.592Z,0.32
2023-05-09T20:54:35.092Z,0.50
2023-05-09T20:57:03.743Z,3.05
2023-05-09T20:59:30.368Z,1.05
2023-05-09T21:01:59.519Z,1.33
2023-05-09T21:04:28.649Z,1.60
2023-05-09T21:06:59.486Z,1.40
2023-05-09T21:09:26.041Z,2.67
2023-05-09T21:11:54.674Z,2.97
2023-05-09T21:14:21.084Z,3.42
2023-05-09T21:16:51.681Z,1.23
2023-05-09T21:19:20.610Z,0.93
2023-05-09T21:21:49.107Z,1.13
2023-05-09T21:24:17.908Z,1.33
2023-05-09T21:26:49.022Z,1.98
2023-05-09T21:29:18.349Z,1.02
2023-05-09T21:31:44.816Z,1.65
2023-05-09T21:34:13.652Z,1.23
2023-05-09T21:36:40.500Z,0.73
2023-05-09T21:39:09.903Z,0.82
2023-05-09T21:41:39.669Z,0.75
2023-05-09T21:44:09.022Z,0.82
2023-05-09T21:46:35.872Z,1.13
2023-05-09T21:49:04.829Z,2.72
2023-05-09T21:51:31.566Z,0.77
2023-05-09T21:54:01.113Z,0.57
2023-05-09T21:56:27.794Z,0.90
2023-05-09T21:58:54.278Z,0.73
2023-05-09T22:01:23.323Z,0.45
2023-05-09T22:03:52.305Z,0.40
2023-05-09T22:06:21.399Z,1.35
2023-05-09T22:08:51.084Z,0.60
2023-05-09T22:11:23.165Z,0.70
2023-05-09T22:13:52.234Z,0.85
2023-05-09T22:16:18.768Z,0.60
2023-05-09T22:18:47.675Z,0.63
2023-05-09T22:21:14.159Z,0.28
2023-05-09T22:23:43.082Z,0.50
2023-05-09T22:26:09.553Z,0.35
2023-05-09T22:28:36.587Z,0.30
2023-05-09T22:31:05.601Z,0.30
2023-05-09T22:33:37.139Z,0.70
2023-05-09T22:36:07.159Z,2.10
2023-05-09T22:38:41.375Z,0.98
2023-05-09T22:41:07.839Z,0.90
2023-05-09T22:43:39.287Z,0.82
2023-05-09T22:46:08.727Z,0.55
2023-05-09T22:48:39.723Z,0.60
2023-05-09T22:51:06.262Z,0.80
2023-05-09T22:53:35.137Z,1.20
2023-05-09T22:56:04.359Z,2.08
2023-05-09T22:58:33.248Z,0.70
2023-05-09T23:00:59.713Z,0.50
2023-05-09T23:03:28.697Z,0.77
2023-05-09T23:05:55.278Z,1.10
2023-05-09T23:08:22.082Z,0.30
2023-05-09T23:10:51.410Z,0.38
2023-05-09T23:13:21.033Z,1.02
2023-05-09T23:15:48.500Z,0.38
2023-05-09T23:18:17.659Z,0.40
2023-05-09T23:20:44.915Z,0.70
2023-05-09T23:23:11.372Z,0.50
2023-05-09T23:25:40.348Z,0.20
2023-05-09T23:28:09.253Z,0.35
2023-05-09T23:30:38.708Z,0.13
2023-05-09T23:33:07.531Z,1.13
2023-05-09T23:35:36.522Z,0.20
2023-05-09T23:38:05.536Z,0.15
2023-05-09T23:40:31.972Z,0.20
2023-05-09T23:42:58.494Z,0.70
2023-05-09T23:45:27.725Z,0.30
2023-05-09T23:47:54.224Z,0.50
2023-05-09T23:50:23.181Z,0.40
2023-05-09T23:52:54.488Z,0.38
2023-05-09T23:55:20.975Z,0.80
2023-05-09T23:57:49.520Z,0.80
